createdAt,value
2022-08-05T00:00:16.717Z,2.90
2022-08-05T00:02:50.894Z,2.97
2022-08-05T00:06:01.458Z,2.90
2022-08-05T00:08:32.498Z,2.43
2022-08-05T00:11:00.895Z,2.77
2022-08-05T00:13:38.841Z,2.80
2022-08-05T00:16:10.894Z,2.70
2022-08-05T00:18:42.207Z,2.70
2022-08-05T00:21:10.954Z,2.50
2022-08-05T00:23:46.197Z,2.60
2022-08-05T00:26:23.253Z,2.73
2022-08-05T00:28:52.212Z,2.97
2022-08-05T00:31:53.719Z,2.93
2022-08-05T00:34:54.547Z,3.13
2022-08-05T00:37:12.424Z,2.90
2022-08-05T00:39:57.816Z,2.80
2022-08-05T00:43:47.337Z,3.00
2022-08-05T00:46:18.058Z,2.90
2022-08-05T00:49:06.212Z,2.93
2022-08-05T00:51:51.667Z,2.90
2022-08-05T00:54:20.449Z,3.00
2022-08-05T00:56:51.707Z,2.93
2022-08-05T00:59:21.362Z,3.10
2022-08-05T01:01:49.467Z,3.00
2022-08-05T01:04:20.415Z,3.07
2022-08-05T01:06:55.132Z,2.83
2022-08-05T01:09:23.229Z,3.10
2022-08-05T01:11:54.519Z,2.90
2022-08-05T01:14:30.968Z,3.10
2022-08-05T01:17:04.695Z,3.17
2022-08-05T01:20:02.451Z,3.07
2022-08-05T01:22:46.943Z,3.27
2022-08-05T01:25:50.263Z,3.50
2022-08-05T01:28:28.703Z,3.10
2022-08-05T01:31:02.980Z,3.37
2022-08-05T01:33:36.492Z,3.20
2022-08-05T01:36:12.926Z,3.47
2022-08-05T01:38:48.529Z,3.70
2022-08-05T01:41:21.781Z,3.50
2022-08-05T01:43:53.347Z,3.13
2022-08-05T01:46:42.692Z,3.30
2022-08-05T01:49:22.821Z,3.30
2022-08-05T01:51:58.467Z,3.30
2022-08-05T01:54:30.498Z,3.40
2022-08-05T01:58:11.648Z,3.10
2022-08-05T01:59:52.597Z,4.13
2022-08-05T02:02:26.175Z,3.20
2022-08-05T02:04:59.353Z,3.53
2022-08-05T02:07:30.417Z,3.60
2022-08-05T02:09:59.216Z,3.60
2022-08-05T02:12:35.769Z,3.83
2022-08-05T02:15:12.356Z,3.70
2022-08-05T02:18:31.380Z,3.70
2022-08-05T02:20:46.995Z,3.60
2022-08-05T02:23:17.395Z,4.17
2022-08-05T02:25:50.111Z,3.97
2022-08-05T02:28:29.138Z,3.60
2022-08-05T02:31:02.348Z,3.50
2022-08-05T02:33:38.798Z,3.83
2022-08-05T02:36:13.501Z,3.43
2022-08-05T02:38:52.882Z,3.77
2022-08-05T02:41:23.535Z,3.30
2022-08-05T02:44:02.368Z,3.50
2022-08-05T02:46:53.595Z,3.53
2022-08-05T02:49:27.506Z,3.70
2022-08-05T02:52:07.885Z,3.70
2022-08-05T02:54:41.018Z,3.53
2022-08-05T02:58:10.667Z,3.47
2022-08-05T03:00:01.250Z,3.83
2022-08-05T03:02:35.476Z,3.73
2022-08-05T03:05:05.265Z,3.87
2022-08-05T03:08:00.191Z,3.90
2022-08-05T03:10:25.181Z,3.93
2022-08-05T03:12:54.736Z,3.70
2022-08-05T03:15:24.367Z,3.53
2022-08-05T03:17:55.460Z,4.03
2022-08-05T03:20:24.733Z,4.37
2022-08-05T03:22:57.063Z,4.20
2022-08-05T03:25:32.906Z,4.40
2022-08-05T03:28:18.853Z,4.00
2022-08-05T03:30:49.034Z,4.33
2022-08-05T03:33:19.360Z,4.27
2022-08-05T03:35:48.421Z,4.10
2022-08-05T03:38:32.788Z,4.07
2022-08-05T03:41:04.048Z,4.17
2022-08-05T03:44:09.702Z,3.70
2022-08-05T03:46:26.849Z,3.83
2022-08-05T03:48:59.586Z,4.27
2022-08-05T03:52:37.707Z,4.40
2022-08-05T03:55:52.674Z,3.97
2022-08-05T03:57:19.729Z,4.10
2022-08-05T03:59:54.815Z,4.13
2022-08-05T04:02:38.628Z,4.47
2022-08-05T04:05:15.972Z,3.67
2022-08-05T04:07:58.343Z,4.37
2022-08-05T04:10:30.874Z,4.00
2022-08-05T04:13:04.306Z,4.27
2022-08-05T04:15:35.873Z,3.93
2022-08-05T04:18:07.299Z,3.90
2022-08-05T04:20:41.141Z,4.27
2022-08-05T04:23:12.218Z,4.60
2022-08-05T04:26:00.302Z,4.50
2022-08-05T04:28:31.696Z,4.20
2022-08-05T04:31:00.954Z,4.70
2022-08-05T04:33:54.468Z,3.83
2022-08-05T04:36:45.950Z,4.53
2022-08-05T04:39:07.939Z,4.37
2022-08-05T04:41:37.916Z,3.97
2022-08-05T04:44:09.236Z,3.77
2022-08-05T04:46:38.245Z,4.03
2022-08-05T04:49:12.377Z,3.97
2022-08-05T04:51:44.500Z,4.50
2022-08-05T04:54:14.560Z,4.10
2022-08-05T04:56:43.664Z,3.67
2022-08-05T04:59:22.400Z,4.03
2022-08-05T05:02:07.331Z,3.53
2022-08-05T05:04:50.533Z,3.53
2022-08-05T05:07:20.953Z,4.17
2022-08-05T05:09:57.561Z,4.13
2022-08-05T05:12:27.356Z,3.83
2022-08-05T05:14:55.871Z,3.80
2022-08-05T05:17:55.678Z,3.90
2022-08-05T05:20:13.684Z,3.60
2022-08-05T05:22:43.950Z,4.00
2022-08-05T05:25:16.535Z,4.20
2022-08-05T05:27:48.669Z,3.83
2022-08-05T05:30:29.852Z,4.07
2022-08-05T05:33:03.803Z,3.80
2022-08-05T05:35:42.583Z,3.60
2022-08-05T05:38:13.852Z,3.90
2022-08-05T05:40:49.979Z,3.77
2022-08-05T05:43:27.940Z,3.80
2022-08-05T05:46:13.760Z,3.40
2022-08-05T05:48:44.758Z,3.53
2022-08-05T05:51:19.913Z,3.80
2022-08-05T05:53:57.522Z,3.60
2022-08-05T05:56:32.507Z,3.73
2022-08-05T05:59:03.129Z,4.07
2022-08-05T06:01:37.566Z,3.10
2022-08-05T06:04:07.947Z,3.40
2022-08-05T06:06:36.266Z,3.33
2022-08-05T06:09:07.644Z,3.73
2022-08-05T06:11:39.384Z,3.47
2022-08-05T06:14:07.739Z,3.20
2022-08-05T06:16:37.205Z,3.03
2022-08-05T06:19:07.293Z,2.73
2022-08-05T06:21:38.423Z,2.80
2022-08-05T06:24:11.839Z,3.58
2022-08-05T06:26:52.178Z,3.50
2022-08-05T06:29:43.018Z,3.30
2022-08-05T06:32:25.307Z,3.67
2022-08-05T06:34:56.232Z,3.50
2022-08-05T06:37:56.162Z,3.75
2022-08-05T06:40:21.108Z,3.13
2022-08-05T06:42:51.943Z,3.03
2022-08-05T06:45:45.008Z,3.35
2022-08-05T06:48:37.220Z,2.72
2022-08-05T06:50:58.234Z,2.97
2022-08-05T06:53:29.124Z,2.80
2022-08-05T06:55:59.854Z,3.03
2022-08-05T06:58:29.657Z,2.88
2022-08-05T07:01:03.656Z,3.10
2022-08-05T07:03:33.228Z,2.88
2022-08-05T07:06:05.894Z,3.00
2022-08-05T07:08:43.165Z,3.03
2022-08-05T07:11:17.795Z,3.70
2022-08-05T07:14:20.064Z,3.05
2022-08-05T07:17:58.749Z,2.85
2022-08-05T07:22:30.030Z,2.97
2022-08-05T07:25:09.449Z,3.50
2022-08-05T07:27:57.421Z,3.75
2022-08-05T07:30:32.607Z,3.33
2022-08-05T07:33:05.218Z,3.38
2022-08-05T07:36:03.567Z,3.00
2022-08-05T07:38:33.656Z,3.45
2022-08-05T07:42:08.921Z,3.33
2022-08-05T07:43:56.396Z,3.97
2022-08-05T07:46:26.357Z,4.00
2022-08-05T07:49:02.218Z,3.40
2022-08-05T07:51:48.546Z,4.07
2022-08-05T07:54:23.206Z,3.55
2022-08-05T07:57:14.860Z,3.50
2022-08-05T07:59:44.005Z,3.45
2022-08-05T08:02:16.268Z,3.20
2022-08-05T08:04:46.918Z,3.92
2022-08-05T08:07:15.732Z,3.60
2022-08-05T08:09:44.257Z,3.75
2022-08-05T08:12:37.143Z,3.67
2022-08-05T08:15:04.240Z,3.58
2022-08-05T08:17:33.107Z,3.80
2022-08-05T08:20:22.694Z,3.35
2022-08-05T08:22:59.092Z,3.90
2022-08-05T08:26:00.503Z,3.50
2022-08-05T08:28:36.482Z,3.85
2022-08-05T08:31:14.595Z,3.90
2022-08-05T08:33:45.965Z,3.78
2022-08-05T08:36:38.474Z,3.80
2022-08-05T08:39:15.238Z,3.75
2022-08-05T08:41:51.155Z,3.70
2022-08-05T08:45:19.602Z,3.70
2022-08-05T08:48:07.589Z,3.97
2022-08-05T08:50:31.010Z,3.53
2022-08-05T08:53:11.969Z,3.67
2022-08-05T08:56:04.621Z,3.88
2022-08-05T08:58:36.931Z,4.18
2022-08-05T09:01:11.034Z,3.88
2022-08-05T09:03:46.540Z,3.90
2022-08-05T09:06:18.632Z,4.07
2022-08-05T09:08:48.218Z,3.97
2022-08-05T09:11:16.361Z,3.90
2022-08-05T09:14:10.045Z,3.90
2022-08-05T09:16:33.170Z,3.88
2022-08-05T09:19:06.834Z,4.30
2022-08-05T09:22:30.838Z,3.83
2022-08-05T09:24:24.180Z,4.30
2022-08-05T09:26:56.210Z,3.38
2022-08-05T09:29:47.548Z,4.20
2022-08-05T09:32:43.054Z,3.97
2022-08-05T09:35:26.940Z,4.53
2022-08-05T09:38:12.093Z,3.97
2022-08-05T09:40:54.158Z,4.47
2022-08-05T09:43:41.172Z,4.60
2022-08-05T09:46:27.319Z,3.83
2022-08-05T09:49:07.845Z,4.38
2022-08-05T09:51:50.236Z,4.30
2022-08-05T09:54:32.058Z,4.20
2022-08-05T09:57:01.498Z,4.22
2022-08-05T09:59:35.199Z,3.90
2022-08-05T10:02:05.934Z,3.85
2022-08-05T10:04:40.948Z,3.85
2022-08-05T10:07:19.681Z,4.30
2022-08-05T10:10:00.305Z,4.00
2022-08-05T10:12:49.186Z,4.05
2022-08-05T10:15:26.024Z,3.65
2022-08-05T10:18:12.711Z,4.03
2022-08-05T10:20:48.311Z,3.60
2022-08-05T10:23:34.168Z,3.55
2022-08-05T10:26:14.253Z,3.50
2022-08-05T10:28:45.117Z,3.50
2022-08-05T10:32:51.789Z,3.47
2022-08-05T10:34:03.664Z,3.20
2022-08-05T10:36:36.456Z,3.60
2022-08-05T10:39:15.335Z,3.50
2022-08-05T10:42:01.177Z,3.47
2022-08-05T10:44:30.471Z,3.25
2022-08-05T10:46:59.226Z,3.80
2022-08-05T10:49:32.971Z,3.33
2022-08-05T10:52:03.205Z,3.00
2022-08-05T10:55:02.858Z,3.22
2022-08-05T10:57:33.640Z,3.45
2022-08-05T11:00:23.710Z,2.83
2022-08-05T11:03:23.062Z,3.00
2022-08-05T11:06:15.344Z,3.20
2022-08-05T11:09:24.491Z,2.90
2022-08-05T11:12:50.400Z,2.97
2022-08-05T11:16:00.755Z,3.33
2022-08-05T11:18:27.494Z,2.78
2022-08-05T11:20:59.073Z,2.88
2022-08-05T11:24:04.034Z,2.80
2022-08-05T11:26:28.172Z,3.03
2022-08-05T11:29:11.692Z,2.80
2022-08-05T11:31:57.877Z,3.10
2022-08-05T11:34:52.164Z,3.03
2022-08-05T11:38:26.611Z,3.25
2022-08-05T11:41:03.518Z,3.22
2022-08-05T11:44:04.950Z,3.30
2022-08-05T11:47:09.948Z,2.97
2022-08-05T11:49:27.580Z,2.88
2022-08-05T11:51:57.521Z,2.88
2022-08-05T11:54:33.284Z,2.65
2022-08-05T11:57:08.560Z,2.80
2022-08-05T11:59:51.867Z,2.97
2022-08-05T12:02:30.190Z,3.03
2022-08-05T12:05:07.292Z,2.92
2022-08-05T12:08:07.389Z,2.70
2022-08-05T12:10:38.388Z,2.90
2022-08-05T12:13:28.161Z,2.97
2022-08-05T12:16:15.098Z,2.60
2022-08-05T12:18:49.608Z,2.92
2022-08-05T12:21:24.199Z,2.63
2022-08-05T12:24:10.995Z,3.08
2022-08-05T12:26:43.931Z,2.70
2022-08-05T12:29:16.131Z,2.65
2022-08-05T12:31:53.739Z,2.63
2022-08-05T12:34:28.279Z,2.42
2022-08-05T12:36:58.165Z,2.50
2022-08-05T12:39:34.251Z,2.63
2022-08-05T12:42:09.278Z,2.65
2022-08-05T12:44:43.802Z,2.60
2022-08-05T12:47:12.851Z,2.53
2022-08-05T12:50:04.403Z,2.63
2022-08-05T12:52:39.407Z,2.40
2022-08-05T12:55:25.630Z,2.40
2022-08-05T12:58:38.929Z,2.40
2022-08-05T13:02:01.518Z,2.13
2022-08-05T13:03:33.521Z,2.30
2022-08-05T13:06:07.953Z,2.67
2022-08-05T13:08:40.104Z,2.25
2022-08-05T13:11:08.942Z,2.35
2022-08-05T13:14:05.712Z,2.15
2022-08-05T13:16:28.775Z,1.95
2022-08-05T13:18:58.562Z,1.98
2022-08-05T13:21:37.981Z,2.30
2022-08-05T13:24:36.543Z,1.95
2022-08-05T13:27:05.701Z,2.40
2022-08-05T13:29:39.251Z,2.30
2022-08-05T13:32:29.250Z,2.20
2022-08-05T13:35:01.223Z,1.98
2022-08-05T13:37:34.731Z,2.30
2022-08-05T13:40:15.973Z,2.10
2022-08-05T13:42:48.394Z,2.13
2022-08-05T13:45:23.696Z,2.22
2022-08-05T13:48:09.495Z,2.10
2022-08-05T13:50:54.569Z,1.70
2022-08-05T13:53:24.123Z,1.90
2022-08-05T13:56:02.181Z,2.08
2022-08-05T13:58:31.175Z,1.85
2022-08-05T14:00:59.638Z,2.00
2022-08-05T14:03:28.296Z,1.75
2022-08-05T14:06:25.065Z,1.90
2022-08-05T14:08:46.671Z,2.00
2022-08-05T14:11:20.581Z,1.80
2022-08-05T14:13:54.770Z,1.83
2022-08-05T14:16:25.409Z,1.80
2022-08-05T14:18:53.577Z,1.92
2022-08-05T14:22:07.182Z,1.60
2022-08-05T14:24:12.291Z,1.80
2022-08-05T14:26:47.163Z,1.90
2022-08-05T14:29:24.578Z,1.85
2022-08-05T14:32:02.749Z,1.77
2022-08-05T14:34:41.795Z,1.75
2022-08-05T14:37:13.384Z,1.80
2022-08-05T14:39:49.363Z,1.80
2022-08-05T14:42:27.775Z,1.90
2022-08-05T14:44:56.691Z,1.83
2022-08-05T14:48:05.803Z,1.90
2022-08-05T14:50:18.493Z,2.20
2022-08-05T14:52:53.643Z,2.10
2022-08-05T14:55:38.327Z,2.10
2022-08-05T14:58:11.811Z,1.77
2022-08-05T15:00:59.457Z,1.85
2022-08-05T15:03:34.066Z,1.90
2022-08-05T15:06:14.901Z,2.20
2022-08-05T15:09:01.186Z,2.22
2022-08-05T15:11:53.005Z,2.10
2022-08-05T15:14:34.837Z,2.10
2022-08-05T15:17:18.997Z,2.00
2022-08-05T15:19:55.138Z,2.08
2022-08-05T15:22:27.102Z,2.20
2022-08-05T15:24:56.370Z,2.45
2022-08-05T15:27:26.082Z,1.90
2022-08-05T15:30:00.369Z,2.25
2022-08-05T15:32:29.031Z,2.10
2022-08-05T15:34:57.291Z,2.33
2022-08-05T15:38:08.582Z,2.00
2022-08-05T15:41:00.836Z,2.10
2022-08-05T15:43:12.754Z,2.08
2022-08-05T15:46:00.205Z,2.03
2022-08-05T15:48:29.657Z,2.30
2022-08-05T15:50:58.212Z,1.98
2022-08-05T15:53:38.066Z,2.20
2022-08-05T15:56:18.356Z,1.88
2022-08-05T15:58:48.744Z,1.98
2022-08-05T16:01:18.708Z,2.05
2022-08-05T16:03:50.875Z,2.10
2022-08-05T16:06:20.905Z,2.15
2022-08-05T16:08:53.752Z,2.15
2022-08-05T16:11:42.743Z,2.40
2022-08-05T16:14:17.190Z,2.20
2022-08-05T16:16:51.743Z,2.30
2022-08-05T16:20:03.584Z,2.35
2022-08-05T16:22:10.454Z,2.20
2022-08-05T16:24:39.722Z,2.13
2022-08-05T16:27:15.834Z,2.17
2022-08-05T16:29:50.880Z,2.20
2022-08-05T16:32:28.393Z,2.08
2022-08-05T16:34:58.839Z,2.33
2022-08-05T16:38:15.777Z,2.10
2022-08-05T16:40:26.730Z,2.00
2022-08-05T16:42:57.886Z,2.00
2022-08-05T16:46:03.907Z,1.80
2022-08-05T16:48:25.514Z,2.03
2022-08-05T16:51:01.199Z,2.47
2022-08-05T16:53:32.024Z,2.30
2022-08-05T16:56:17.492Z,2.50
2022-08-05T16:58:45.501Z,2.60
2022-08-05T17:01:15.209Z,2.40
2022-08-05T17:03:43.326Z,2.35
2022-08-05T17:06:11.359Z,2.67
2022-08-05T17:08:53.528Z,3.17
2022-08-05T17:11:23.945Z,2.95
2022-08-05T17:14:05.704Z,5.80
2022-08-05T17:16:39.798Z,3.70
2022-08-05T17:19:09.634Z,3.00
2022-08-05T17:21:39.724Z,2.85
2022-08-05T17:24:18.614Z,2.40
2022-08-05T17:26:56.025Z,2.47
2022-08-05T17:29:39.823Z,3.30
2022-08-05T17:32:11.629Z,2.50
2022-08-05T17:34:49.438Z,2.50
2022-08-05T17:37:39.824Z,2.70
2022-08-05T17:40:10.976Z,2.75
2022-08-05T17:42:41.707Z,2.90
2022-08-05T17:45:21.563Z,2.80
2022-08-05T17:47:55.851Z,3.00
2022-08-05T17:50:28.952Z,3.45
2022-08-05T17:53:00.264Z,3.63
2022-08-05T17:55:38.368Z,3.53
2022-08-05T17:58:13.322Z,3.30
2022-08-05T18:00:46.956Z,3.42
2022-08-05T18:03:56.476Z,3.60
2022-08-05T18:06:11.819Z,3.65
2022-08-05T18:08:44.742Z,4.00
2022-08-05T18:11:23.738Z,4.05
2022-08-05T18:13:59.762Z,3.88
2022-08-05T18:16:27.977Z,3.85
2022-08-05T18:18:57.450Z,3.78
2022-08-05T18:21:25.939Z,4.30
2022-08-05T18:23:54.801Z,4.32
2022-08-05T18:26:27.778Z,4.57
2022-08-05T18:28:58.031Z,4.53
2022-08-05T18:31:32.990Z,4.85
2022-08-05T18:34:06.116Z,4.72
2022-08-05T18:36:36.268Z,4.60
2022-08-05T18:39:09.627Z,4.43
2022-08-05T18:41:54.956Z,4.53
2022-08-05T18:44:34.970Z,4.53
2022-08-05T18:47:15.597Z,4.68
2022-08-05T18:50:02.774Z,4.97
2022-08-05T18:52:35.621Z,4.20
2022-08-05T18:55:06.423Z,4.40
2022-08-05T18:57:50.368Z,4.63
2022-08-05T19:00:29.193Z,4.55
2022-08-05T19:03:03.600Z,5.15
2022-08-05T19:06:12.056Z,4.80
2022-08-05T19:08:30.570Z,4.15
2022-08-05T19:11:04.529Z,4.30
2022-08-05T19:13:35.886Z,5.20
2022-08-05T19:16:25.019Z,4.65
2022-08-05T19:18:56.572Z,4.57
2022-08-05T19:21:27.628Z,5.15
2022-08-05T19:24:07.795Z,5.50
2022-08-05T19:26:43.768Z,5.68
2022-08-05T19:29:36.162Z,5.70
2022-08-05T19:32:08.481Z,5.47
2022-08-05T19:34:37.135Z,5.85
2022-08-05T19:37:08.094Z,6.18
2022-08-05T19:39:45.262Z,6.65
2022-08-05T19:42:19.617Z,5.93
2022-08-05T19:45:07.994Z,5.78
2022-08-05T19:47:37.609Z,6.00
2022-08-05T19:50:07.850Z,5.78
2022-08-05T19:52:40.669Z,6.10
2022-08-05T19:56:12.358Z,6.78
2022-08-05T19:58:19.816Z,6.18
2022-08-05T20:00:46.937Z,6.38
2022-08-05T20:03:15.729Z,5.75
2022-08-05T20:05:51.487Z,5.35
2022-08-05T20:08:24.454Z,5.80
2022-08-05T20:10:53.131Z,5.53
2022-08-05T20:13:29.998Z,6.13
2022-08-05T20:16:12.959Z,5.20
2022-08-05T20:18:48.370Z,6.03
2022-08-05T20:21:25.367Z,5.90
2022-08-05T20:23:54.882Z,5.70
2022-08-05T20:26:26.225Z,5.82
2022-08-05T20:28:56.922Z,5.97
2022-08-05T20:31:36.880Z,6.28
2022-08-05T20:34:11.563Z,6.63
2022-08-05T20:36:43.142Z,6.72
2022-08-05T20:39:13.774Z,7.10
2022-08-05T20:41:46.613Z,7.78
2022-08-05T20:44:29.663Z,7.22
2022-08-05T20:46:59.891Z,8.38
2022-08-05T20:49:28.067Z,8.02
2022-08-05T20:51:57.636Z,7.97
2022-08-05T20:54:42.770Z,7.72
2022-08-05T20:57:24.512Z,8.18
2022-08-05T21:00:19.978Z,7.43
2022-08-05T21:03:00.129Z,7.75
2022-08-05T21:05:48.344Z,7.30
2022-08-05T21:08:17.726Z,7.57
2022-08-05T21:10:48.811Z,7.28
2022-08-05T21:13:26.124Z,6.70
2022-08-05T21:16:05.970Z,7.07
2022-08-05T21:18:33.967Z,6.68
2022-08-05T21:21:02.009Z,7.00
2022-08-05T21:23:30.469Z,7.00
2022-08-05T21:26:12.462Z,6.65
2022-08-05T21:28:47.753Z,6.72
2022-08-05T21:31:19.166Z,6.20
2022-08-05T21:33:49.409Z,5.90
2022-08-05T21:36:19.375Z,6.57
2022-08-05T21:38:58.545Z,6.90
2022-08-05T21:41:33.719Z,6.32
2022-08-05T21:44:04.364Z,6.20
2022-08-05T21:46:34.546Z,6.78
2022-08-05T21:49:04.598Z,6.47
2022-08-05T21:52:16.387Z,6.78
2022-08-05T21:54:27.860Z,6.35
2022-08-05T21:57:15.504Z,6.57
2022-08-05T22:00:02.920Z,6.40
2022-08-05T22:02:31.133Z,6.40
2022-08-05T22:04:59.161Z,6.65
2022-08-05T22:07:40.373Z,5.90
2022-08-05T22:10:17.150Z,6.13
2022-08-05T22:12:57.522Z,5.80
2022-08-05T22:16:01.060Z,6.28
2022-08-05T22:18:15.887Z,6.55
2022-08-05T22:20:47.682Z,6.22
2022-08-05T22:24:02.509Z,5.85
2022-08-05T22:26:42.633Z,5.75
2022-08-05T22:29:26.895Z,7.78
2022-08-05T22:32:03.056Z,5.82
2022-08-05T22:34:31.960Z,5.68
2022-08-05T22:37:00.876Z,6.00
2022-08-05T22:39:33.949Z,5.70
2022-08-05T22:42:11.435Z,5.50
2022-08-05T22:44:53.736Z,5.70
2022-08-05T22:47:29.237Z,6.10
2022-08-05T22:50:21.306Z,5.88
2022-08-05T22:52:48.072Z,6.60
2022-08-05T22:55:19.552Z,6.93
2022-08-05T22:57:49.012Z,6.97
2022-08-05T23:00:20.899Z,6.78
2022-08-05T23:02:50.102Z,6.97
2022-08-05T23:05:22.289Z,6.75
2022-08-05T23:07:50.973Z,6.45
2022-08-05T23:10:20.740Z,7.15
2022-08-05T23:12:54.519Z,6.93
2022-08-05T23:15:26.899Z,6.88
2022-08-05T23:18:00.532Z,6.65
2022-08-05T23:20:30.979Z,6.75
2022-08-05T23:22:59.114Z,6.70
2022-08-05T23:25:52.763Z,6.70
2022-08-05T23:28:17.240Z,6.35
2022-08-05T23:30:53.556Z,6.35
2022-08-05T23:33:26.542Z,6.43
2022-08-05T23:36:13.878Z,6.88
2022-08-05T23:38:43.529Z,7.30
2022-08-05T23:41:12.232Z,6.15
2022-08-05T23:44:04.948Z,6.30
2022-08-05T23:46:30.626Z,6.35
2022-08-05T23:49:00.534Z,6.50
2022-08-05T23:51:51.727Z,6.50
2022-08-05T23:54:25.457Z,6.73
2022-08-05T23:56:55.252Z,6.47
2022-08-05T23:59:27.801Z,6.73
